Metcalfe, Mississippi
Current Conditions -  °F | °C
As of 12:53 PM on Friday 21 Nov 2014 (Local Time) from KGLH Reporting Station
Broken Clouds Broken Clouds  
Wind Chill: 66°   Ceiling: 11000
Heat Index: 66°   Visibility: 10mi
Dew Point: 49°   Wind: 9mph
Humidity: 54%   Direction: 170°S
Pressure: 30.24"   Gusts: NA
Location:  33.45°N, 91.01°W
Report Text: KGLH 211853Z AUTO 17008KT 10SM BKN110 19/09 A3024 RMK AO2 SLP248 T01890094
Loading
Personal Weather Stations






























Interactive Weather Map New forecast layout! Learn more

10-Day Weather Forecast

Advertisements
Track Severe Weather on mobile